Disclaimer

Please do not use the information listed here in-flight or in-navigation, as they are not provided to us by the airports but are provided by volunteers, so they might be outdated.

Search


Regions


Airport information page

Radio informations:
Tower (TWR) - 118.1 MHz
OPS - 122.5 MHz
Ground (GND) - 121.7 MHz
Approach (APP) - 120.1 MHz

Airport informations:
Latitude: 02° 50' 46.72" N
Longitude: 060° 41' 24.25" W
Elevation: 276 feet - 84 meters
Operating hours: 24 hour operations
Operating agency: Civil government, landing fees and diplomatic clearance may be required
Timezone: UTC-4(-3DT)
Fuel: Jet A1, without icing nhibitor.

100/130 octane gasoline, leaded, MIL-L-5572F (GREEN)

Runway information:
08/26 - 8858 x 148 feet< - >2700 x 45 meters

Recent METARs:
SBBV 190200Z 10011KT CAVOK 30/21 Q1011
SBBV 190200Z 10011KT CAVOK 30/21 Q1011
SBBV 190300Z 10009KT CAVOK 29/21 Q1011

Airport on the map: